createdAt,value
2022-12-16T00:01:14.939Z,7.05
2022-12-16T00:03:41.895Z,3.25
2022-12-16T00:06:09.018Z,3.97
2022-12-16T00:08:37.239Z,3.42
2022-12-16T00:11:04.066Z,3.97
2022-12-16T00:13:32.229Z,3.95
2022-12-16T00:16:01.528Z,3.53
2022-12-16T00:18:28.999Z,3.00
2022-12-16T00:20:56.080Z,3.30
2022-12-16T00:23:23.039Z,4.95
2022-12-16T00:25:50.240Z,3.47
2022-12-16T00:28:18.669Z,4.32
2022-12-16T00:30:45.514Z,5.85
2022-12-16T00:33:13.089Z,3.80
2022-12-16T00:35:44.468Z,4.22
2022-12-16T00:38:12.885Z,3.88
2022-12-16T00:40:39.597Z,3.83
2022-12-16T00:43:06.290Z,3.45
2022-12-16T00:45:33.058Z,3.05
2022-12-16T00:48:00.904Z,3.78
2022-12-16T00:50:27.768Z,5.78
2022-12-16T00:52:54.479Z,3.80
2022-12-16T00:55:21.580Z,3.38
2022-12-16T00:57:48.332Z,3.35
2022-12-16T01:00:16.026Z,3.60
2022-12-16T01:02:47.633Z,3.33
2022-12-16T01:05:16.650Z,5.20
2022-12-16T01:07:43.418Z,3.70
2022-12-16T01:10:10.710Z,3.42
2022-12-16T01:12:37.858Z,3.47
2022-12-16T01:15:05.485Z,4.05
2022-12-16T01:17:32.229Z,3.25
2022-12-16T01:19:59.406Z,4.00
2022-12-16T01:22:26.110Z,4.78
2022-12-16T01:24:52.916Z,3.65
2022-12-16T01:27:19.732Z,3.70
2022-12-16T01:29:46.473Z,3.47
2022-12-16T01:32:13.517Z,7.22
2022-12-16T01:34:40.485Z,4.63
2022-12-16T01:37:07.494Z,3.97
2022-12-16T01:39:35.218Z,4.05
2022-12-16T01:42:02.345Z,5.47
2022-12-16T01:44:30.067Z,3.45
2022-12-16T01:47:01.382Z,3.55
2022-12-16T01:49:36.895Z,3.33
2022-12-16T01:52:06.074Z,3.35
2022-12-16T01:54:40.232Z,3.17
2022-12-16T01:57:13.915Z,4.43
2022-12-16T01:59:41.642Z,5.47
2022-12-16T02:02:08.546Z,3.97
2022-12-16T02:04:35.672Z,3.65
2022-12-16T02:07:02.405Z,4.22
2022-12-16T02:09:29.908Z,4.05
2022-12-16T02:12:07.797Z,3.63
2022-12-16T02:14:38.419Z,2.97
2022-12-16T02:17:49.415Z,3.40
2022-12-16T02:20:17.190Z,3.85
2022-12-16T02:23:00.656Z,3.20
2022-12-16T02:25:46.843Z,3.83
2022-12-16T02:28:29.381Z,3.40
2022-12-16T02:31:02.210Z,2.60
2022-12-16T02:33:47.466Z,3.05
2022-12-16T02:36:17.171Z,3.00
2022-12-16T02:38:56.856Z,4.65
2022-12-16T02:41:53.769Z,3.28
2022-12-16T02:44:21.819Z,4.03
2022-12-16T02:46:53.500Z,3.08
2022-12-16T02:49:22.290Z,3.13
2022-12-16T02:51:49.228Z,3.30
2022-12-16T02:54:15.948Z,3.03
2022-12-16T02:56:54.863Z,3.15
2022-12-16T02:59:32.844Z,2.80
2022-12-16T03:02:22.348Z,3.10
2022-12-16T03:04:57.087Z,2.95
2022-12-16T03:07:24.844Z,3.03
2022-12-16T03:09:51.580Z,2.78
2022-12-16T03:12:18.545Z,3.08
2022-12-16T03:14:46.773Z,3.10
2022-12-16T03:17:13.870Z,2.83
2022-12-16T03:19:41.584Z,2.80
2022-12-16T03:22:13.051Z,2.72
2022-12-16T03:24:40.098Z,2.80
2022-12-16T03:27:09.986Z,2.47
2022-12-16T03:29:43.809Z,3.60
2022-12-16T03:32:15.912Z,2.63
2022-12-16T03:34:44.953Z,3.42
2022-12-16T03:37:12.826Z,2.92
2022-12-16T03:39:47.852Z,2.92
2022-12-16T03:42:15.429Z,2.85
2022-12-16T03:44:48.448Z,3.03
2022-12-16T03:47:19.966Z,3.20
2022-12-16T03:49:50.238Z,3.17
2022-12-16T03:52:17.178Z,4.50
2022-12-16T03:54:43.884Z,4.18
2022-12-16T03:57:15.362Z,4.10
2022-12-16T03:59:42.908Z,3.58
2022-12-16T04:02:09.851Z,3.53
2022-12-16T04:04:36.723Z,3.05
2022-12-16T04:07:21.923Z,3.33
2022-12-16T04:09:49.158Z,3.22
2022-12-16T04:12:34.421Z,4.25
2022-12-16T04:15:34.647Z,3.72
2022-12-16T04:18:20.434Z,3.47
2022-12-16T04:21:08.182Z,4.28
2022-12-16T04:23:54.143Z,5.00
2022-12-16T04:26:21.059Z,3.63
2022-12-16T04:28:47.761Z,3.83
2022-12-16T04:31:14.549Z,3.05
2022-12-16T04:34:00.797Z,4.05
2022-12-16T04:36:46.175Z,5.20
2022-12-16T04:39:31.618Z,3.10
2022-12-16T04:42:16.827Z,3.10
2022-12-16T04:45:02.158Z,4.00
2022-12-16T04:47:48.691Z,3.70
2022-12-16T04:50:35.774Z,4.00
2022-12-16T04:53:20.889Z,3.45
2022-12-16T04:56:06.092Z,3.55
2022-12-16T04:58:51.323Z,3.90
2022-12-16T05:01:36.589Z,4.30
2022-12-16T05:04:21.878Z,4.13
2022-12-16T05:07:06.958Z,2.92
2022-12-16T05:09:52.306Z,3.90
2022-12-16T05:12:37.724Z,3.67
2022-12-16T05:15:23.569Z,4.57
2022-12-16T05:18:09.056Z,3.67
2022-12-16T05:20:54.355Z,3.30
2022-12-16T05:23:40.751Z,4.43
2022-12-16T05:26:26.124Z,3.33
2022-12-16T05:29:11.351Z,3.33
2022-12-16T05:31:56.629Z,4.18
2022-12-16T05:34:42.090Z,3.47
2022-12-16T05:37:27.611Z,3.75
2022-12-16T05:40:13.150Z,4.95
2022-12-16T05:43:16.511Z,3.80
2022-12-16T05:46:02.440Z,4.22
2022-12-16T05:48:48.101Z,5.20
2022-12-16T05:51:33.606Z,3.55
2022-12-16T05:54:20.266Z,4.72
2022-12-16T05:57:05.438Z,4.57
2022-12-16T05:59:50.899Z,7.90
2022-12-16T06:02:36.566Z,4.10
2022-12-16T06:05:22.308Z,5.43
2022-12-16T06:08:11.380Z,3.92
2022-12-16T06:10:57.040Z,3.95
2022-12-16T06:13:42.644Z,3.92
2022-12-16T06:16:28.310Z,4.68
2022-12-16T06:19:14.499Z,3.95
2022-12-16T06:22:00.740Z,5.45
2022-12-16T06:24:46.027Z,5.10
2022-12-16T06:27:31.317Z,4.30
2022-12-16T06:30:16.373Z,5.80
2022-12-16T06:33:01.727Z,3.97
2022-12-16T06:35:47.052Z,7.03
2022-12-16T06:38:32.473Z,5.50
2022-12-16T06:41:17.754Z,6.43
2022-12-16T06:44:02.918Z,4.68
2022-12-16T06:46:49.261Z,4.35
2022-12-16T06:49:34.730Z,6.57
2022-12-16T06:52:20.219Z,7.18
2022-12-16T06:55:05.708Z,3.58
2022-12-16T06:57:51.205Z,5.40
2022-12-16T07:00:36.910Z,5.07
2022-12-16T07:03:22.519Z,5.50
2022-12-16T07:06:11.855Z,4.13
2022-12-16T07:08:57.134Z,6.20
2022-12-16T07:11:42.255Z,4.00
2022-12-16T07:14:27.646Z,5.30
2022-12-16T07:17:17.118Z,4.60
2022-12-16T07:20:02.906Z,5.70
2022-12-16T07:22:52.619Z,6.60
2022-12-16T07:25:46.563Z,3.88
2022-12-16T07:28:31.539Z,4.55
2022-12-16T07:31:16.897Z,4.70
2022-12-16T07:34:02.332Z,5.20
2022-12-16T07:36:47.643Z,7.07
2022-12-16T07:39:33.121Z,7.97
2022-12-16T07:42:20.214Z,8.80
2022-12-16T07:45:05.414Z,7.85
2022-12-16T07:47:50.904Z,9.13
2022-12-16T07:50:36.354Z,7.13
2022-12-16T07:53:22.333Z,7.22
2022-12-16T07:56:07.670Z,7.70
2022-12-16T07:59:10.778Z,6.18
2022-12-16T08:01:56.289Z,5.70
2022-12-16T08:04:42.018Z,5.35
2022-12-16T08:07:27.222Z,5.05
2022-12-16T08:10:12.570Z,6.18
2022-12-16T08:12:57.726Z,6.68
2022-12-16T08:15:43.391Z,6.45
2022-12-16T08:18:28.939Z,6.57
2022-12-16T08:21:14.454Z,6.40
2022-12-16T08:24:00.553Z,6.70
2022-12-16T08:26:45.924Z,5.82
2022-12-16T08:29:46.648Z,7.10
2022-12-16T08:32:33.109Z,5.57
2022-12-16T08:35:19.984Z,6.68
2022-12-16T08:38:10.574Z,8.70
2022-12-16T08:41:02.855Z,7.07
2022-12-16T08:43:54.942Z,8.32
2022-12-16T08:46:40.457Z,14.73
2022-12-16T08:49:26.023Z,12.52
2022-12-16T08:52:11.164Z,11.52
2022-12-16T08:54:56.484Z,11.70
2022-12-16T08:57:41.806Z,13.20
2022-12-16T09:00:27.451Z,11.43
2022-12-16T09:03:16.921Z,12.70
2022-12-16T09:06:02.449Z,12.00
2022-12-16T09:08:49.255Z,8.32
2022-12-16T09:11:34.606Z,9.45
2022-12-16T09:14:20.564Z,11.93
2022-12-16T09:17:06.523Z,10.57
2022-12-16T09:19:52.024Z,6.07
2022-12-16T09:22:39.454Z,10.77
2022-12-16T09:25:25.442Z,10.00
2022-12-16T09:28:10.857Z,6.75
2022-12-16T09:30:56.244Z,6.25
2022-12-16T09:33:41.732Z,7.15
2022-12-16T09:36:27.569Z,5.85
2022-12-16T09:39:12.777Z,6.38
2022-12-16T09:42:02.761Z,6.28
2022-12-16T09:45:11.018Z,6.10
2022-12-16T09:48:12.886Z,9.15
2022-12-16T09:50:59.889Z,6.90
2022-12-16T09:53:53.267Z,5.90
2022-12-16T09:56:42.038Z,6.00
2022-12-16T09:59:31.596Z,7.00
2022-12-16T10:02:17.034Z,8.32
2022-12-16T10:05:04.099Z,5.55
2022-12-16T10:07:50.315Z,5.45
2022-12-16T10:10:55.835Z,6.43
2022-12-16T10:13:51.140Z,5.80
2022-12-16T10:16:39.897Z,4.25
2022-12-16T10:19:43.664Z,5.25
2022-12-16T10:22:39.311Z,4.88
2022-12-16T10:25:45.361Z,4.60
2022-12-16T10:28:38.845Z,5.65
2022-12-16T10:31:32.140Z,8.57
2022-12-16T10:34:17.376Z,8.05
2022-12-16T10:37:06.110Z,5.63
2022-12-16T10:39:57.031Z,5.82
2022-12-16T10:42:54.328Z,5.18
2022-12-16T10:45:52.071Z,6.47
2022-12-16T10:48:50.200Z,5.50
2022-12-16T10:51:41.493Z,6.72
2022-12-16T10:54:38.799Z,4.75
2022-12-16T10:57:39.513Z,6.68
2022-12-16T11:01:08.596Z,6.35
2022-12-16T11:03:55.304Z,4.68
2022-12-16T11:06:57.678Z,4.38
2022-12-16T11:09:47.081Z,4.13
2022-12-16T11:12:46.577Z,4.40
2022-12-16T11:15:50.394Z,6.50
2022-12-16T11:18:37.724Z,4.55
2022-12-16T11:21:36.900Z,5.25
2022-12-16T11:24:38.369Z,4.68
2022-12-16T11:27:33.850Z,4.40
2022-12-16T11:30:40.485Z,4.78
2022-12-16T11:33:43.198Z,4.07
2022-12-16T11:36:46.507Z,5.40
2022-12-16T11:39:38.776Z,6.03
2022-12-16T11:42:24.817Z,5.00
2022-12-16T11:45:12.607Z,4.65
2022-12-16T11:48:11.957Z,7.35
2022-12-16T11:51:07.200Z,5.85
2022-12-16T11:53:52.505Z,7.03
2022-12-16T11:56:43.484Z,5.88
2022-12-16T11:59:48.612Z,5.03
2022-12-16T12:02:47.304Z,4.18
2022-12-16T12:05:40.483Z,5.55
2022-12-16T12:08:29.719Z,5.10
2022-12-16T12:11:29.302Z,5.88
2022-12-16T12:14:54.074Z,4.78
2022-12-16T12:18:15.003Z,4.78
2022-12-16T12:21:09.088Z,4.95
2022-12-16T12:24:12.476Z,3.67
2022-12-16T12:27:01.671Z,5.40
2022-12-16T12:29:50.816Z,8.88
2022-12-16T12:32:57.034Z,4.50
2022-12-16T12:36:01.923Z,4.20
2022-12-16T12:39:09.156Z,4.25
2022-12-16T12:42:11.928Z,3.60
2022-12-16T12:45:19.175Z,4.28
2022-12-16T12:48:40.245Z,3.75
2022-12-16T12:51:37.596Z,4.68
2022-12-16T12:54:40.128Z,8.63
2022-12-16T12:57:25.226Z,4.40
2022-12-16T13:00:23.459Z,5.85
2022-12-16T13:03:20.881Z,4.95
2022-12-16T13:06:06.492Z,6.22
2022-12-16T13:09:20.551Z,5.40
2022-12-16T13:12:24.762Z,7.78
2022-12-16T13:15:09.898Z,5.50
2022-12-16T13:18:20.110Z,5.60
2022-12-16T13:21:08.948Z,7.93
2022-12-16T13:24:04.526Z,8.05
2022-12-16T13:26:51.495Z,4.70
2022-12-16T13:29:47.333Z,4.68
2022-12-16T13:32:43.180Z,7.65
2022-12-16T13:35:28.434Z,8.10
2022-12-16T13:38:15.076Z,7.25
2022-12-16T13:41:45.037Z,7.25
2022-12-16T13:45:13.375Z,6.03
2022-12-16T13:48:01.675Z,7.30
2022-12-16T13:51:00.927Z,9.52
2022-12-16T13:53:51.776Z,9.40
2022-12-16T13:56:55.715Z,14.98
2022-12-16T13:59:43.393Z,16.20
2022-12-16T14:02:59.726Z,13.98
2022-12-16T14:05:51.439Z,13.35
2022-12-16T14:08:38.580Z,9.65
2022-12-16T14:11:26.251Z,11.07
2022-12-16T14:14:30.559Z,13.48
2022-12-16T14:17:21.296Z,13.27
2022-12-16T14:20:19.109Z,14.68
2022-12-16T14:23:10.664Z,14.30
2022-12-16T14:25:56.171Z,14.38
2022-12-16T14:28:48.701Z,13.38
2022-12-16T14:31:52.705Z,10.15
2022-12-16T14:34:41.859Z,9.20
2022-12-16T14:37:37.851Z,11.38
2022-12-16T14:40:25.140Z,9.40
2022-12-16T14:43:13.022Z,15.02
2022-12-16T14:45:59.624Z,12.88
2022-12-16T14:48:59.950Z,8.07
2022-12-16T14:51:50.304Z,7.47
2022-12-16T14:54:50.200Z,11.75
2022-12-16T14:57:43.001Z,11.80
2022-12-16T15:00:30.821Z,9.68
2022-12-16T15:03:20.705Z,14.50
2022-12-16T15:06:06.083Z,16.20
2022-12-16T15:08:53.050Z,15.02
2022-12-16T15:11:39.500Z,10.13
2022-12-16T15:14:24.585Z,9.23
2022-12-16T15:17:10.061Z,7.88
2022-12-16T15:20:03.814Z,13.07
2022-12-16T15:22:50.264Z,8.00
2022-12-16T15:25:41.886Z,12.60
2022-12-16T15:29:00.762Z,13.35
2022-12-16T15:31:54.556Z,17.08
2022-12-16T15:35:07.575Z,17.08
2022-12-16T15:38:04.254Z,12.60
2022-12-16T15:40:50.548Z,11.27
2022-12-16T15:43:52.581Z,10.60
2022-12-16T15:46:47.375Z,14.88
2022-12-16T15:49:49.242Z,8.52
2022-12-16T15:52:47.744Z,5.07
2022-12-16T15:56:05.217Z,5.10
2022-12-16T15:58:51.793Z,11.07
2022-12-16T16:01:41.426Z,8.20
2022-12-16T16:04:43.487Z,6.20
2022-12-16T16:07:36.702Z,9.07
2022-12-16T16:10:42.924Z,5.35
2022-12-16T16:13:29.205Z,8.40
2022-12-16T16:16:15.059Z,9.35
2022-12-16T16:19:01.602Z,7.65
2022-12-16T16:21:47.276Z,9.15
2022-12-16T16:24:33.066Z,6.60
2022-12-16T16:27:20.710Z,7.85
2022-12-16T16:30:06.422Z,10.07
2022-12-16T16:33:05.346Z,6.10
2022-12-16T16:35:50.838Z,9.27
2022-12-16T16:38:36.025Z,7.70
2022-12-16T16:41:21.133Z,9.00
2022-12-16T16:44:06.431Z,5.80
2022-12-16T16:46:58.037Z,6.47
2022-12-16T16:50:01.291Z,5.80
2022-12-16T16:52:46.640Z,6.65
2022-12-16T16:55:39.393Z,10.55
2022-12-16T16:58:35.070Z,6.93
2022-12-16T17:01:21.331Z,5.47
2022-12-16T17:04:06.750Z,6.80
2022-12-16T17:06:51.983Z,6.55
2022-12-16T17:09:37.306Z,5.45
2022-12-16T17:12:38.491Z,6.72
2022-12-16T17:15:41.357Z,5.53
2022-12-16T17:18:27.034Z,7.57
2022-12-16T17:21:12.671Z,5.35
2022-12-16T17:24:08.653Z,4.45
2022-12-16T17:26:54.179Z,6.15
2022-12-16T17:29:43.016Z,5.53
2022-12-16T17:32:28.775Z,5.47
2022-12-16T17:35:15.480Z,3.85
2022-12-16T17:38:01.266Z,5.82
2022-12-16T17:40:46.623Z,6.00
2022-12-16T17:43:32.325Z,4.63
2022-12-16T17:46:20.357Z,4.22
2022-12-16T17:49:13.040Z,3.92
2022-12-16T17:52:00.004Z,3.97
2022-12-16T17:54:45.361Z,3.78
2022-12-16T17:57:31.076Z,6.18
2022-12-16T18:00:16.267Z,4.97
2022-12-16T18:03:02.035Z,7.88
2022-12-16T18:05:47.287Z,13.73
2022-12-16T18:08:32.311Z,8.15
2022-12-16T18:11:17.734Z,6.65
2022-12-16T18:14:03.127Z,11.23
2022-12-16T18:16:50.275Z,6.88
2022-12-16T18:19:35.856Z,10.05
2022-12-16T18:22:21.479Z,11.07
2022-12-16T18:25:06.603Z,12.50
2022-12-16T18:27:52.154Z,15.45
2022-12-16T18:30:37.811Z,13.38
2022-12-16T18:33:23.151Z,8.85
2022-12-16T18:36:08.667Z,8.13
2022-12-16T18:38:53.781Z,12.30
2022-12-16T18:41:40.357Z,8.70
2022-12-16T18:44:25.794Z,8.73
2022-12-16T18:47:11.084Z,9.68
2022-12-16T18:49:56.367Z,6.40
2022-12-16T18:52:41.651Z,5.82
2022-12-16T18:55:26.750Z,9.35
2022-12-16T18:58:27.836Z,10.90
2022-12-16T19:01:21.740Z,9.90
2022-12-16T19:04:06.926Z,9.93
2022-12-16T19:06:52.124Z,15.95
2022-12-16T19:09:37.344Z,11.50
2022-12-16T19:12:23.008Z,9.18
2022-12-16T19:15:08.437Z,11.45
2022-12-16T19:17:53.654Z,8.98
2022-12-16T19:20:40.622Z,9.05
2022-12-16T19:23:25.948Z,10.25
2022-12-16T19:26:19.009Z,11.45
2022-12-16T19:29:04.136Z,9.02
2022-12-16T19:31:50.352Z,8.82
2022-12-16T19:34:35.706Z,18.45
2022-12-16T19:37:21.057Z,7.53
2022-12-16T19:40:11.071Z,8.43
2022-12-16T19:42:56.676Z,7.68
2022-12-16T19:45:42.141Z,7.88
2022-12-16T19:48:30.191Z,6.90
2022-12-16T19:51:35.411Z,8.05
2022-12-16T19:54:22.333Z,6.35
2022-12-16T19:57:10.727Z,8.82
2022-12-16T19:59:56.369Z,10.20
2022-12-16T20:02:41.796Z,7.57
2022-12-16T20:05:27.279Z,7.95
2022-12-16T20:08:12.498Z,10.32
2022-12-16T20:10:57.627Z,10.73
2022-12-16T20:13:43.005Z,8.50
2022-12-16T20:16:30.411Z,9.50
2022-12-16T20:19:16.357Z,12.63
2022-12-16T20:22:06.197Z,8.05
2022-12-16T20:25:06.893Z,8.60
2022-12-16T20:27:52.530Z,9.45
2022-12-16T20:30:38.655Z,9.40
2022-12-16T20:33:23.904Z,8.73
2022-12-16T20:36:18.136Z,12.90
2022-12-16T20:39:03.417Z,6.53
2022-12-16T20:41:51.957Z,10.57
2022-12-16T20:44:37.176Z,9.38
2022-12-16T20:47:22.353Z,6.97
2022-12-16T20:50:07.526Z,9.20
2022-12-16T20:52:52.994Z,8.95
2022-12-16T20:55:38.690Z,6.53
2022-12-16T20:58:23.963Z,10.43
2022-12-16T21:01:12.749Z,6.28
2022-12-16T21:03:57.821Z,8.82
2022-12-16T21:06:43.496Z,5.40
2022-12-16T21:09:30.062Z,5.18
2022-12-16T21:12:15.816Z,4.72
2022-12-16T21:15:01.331Z,8.02
2022-12-16T21:17:46.795Z,9.93
2022-12-16T21:20:32.072Z,4.85
2022-12-16T21:23:22.403Z,4.18
2022-12-16T21:26:08.146Z,7.00
2022-12-16T21:28:53.538Z,7.10
2022-12-16T21:31:41.571Z,8.82
2022-12-16T21:34:27.029Z,5.50
2022-12-16T21:37:12.420Z,11.52
2022-12-16T21:39:57.735Z,6.68
2022-12-16T21:45:49.256Z,5.53
2022-12-16T21:48:34.327Z,7.28
2022-12-16T21:51:20.572Z,9.18
2022-12-16T21:54:09.466Z,7.68
2022-12-16T21:56:56.351Z,6.28
2022-12-16T21:59:42.289Z,8.40
2022-12-16T22:02:31.060Z,5.20
2022-12-16T22:05:16.296Z,5.85
2022-12-16T22:08:01.736Z,6.65
2022-12-16T22:10:46.931Z,4.60
2022-12-16T22:13:32.293Z,5.03
2022-12-16T22:16:17.606Z,6.30
2022-12-16T22:19:03.191Z,5.35
2022-12-16T22:21:49.993Z,4.30
2022-12-16T22:24:35.136Z,3.55
2022-12-16T22:27:20.942Z,5.35
2022-12-16T22:30:06.080Z,4.03
2022-12-16T22:32:51.278Z,4.47
2022-12-16T22:35:37.205Z,5.75
2022-12-16T22:38:22.312Z,5.63
2022-12-16T22:41:16.628Z,4.22
2022-12-16T22:44:02.058Z,6.43
2022-12-16T22:46:47.871Z,5.18
2022-12-16T22:49:33.638Z,4.30
2022-12-16T22:52:21.093Z,6.28
2022-12-16T22:55:06.464Z,3.92
2022-12-16T22:57:53.388Z,4.28
2022-12-16T23:00:39.588Z,4.50
2022-12-16T23:03:25.352Z,4.65
2022-12-16T23:06:11.072Z,5.32
2022-12-16T23:08:56.881Z,4.75
2022-12-16T23:11:44.925Z,5.10
2022-12-16T23:14:31.385Z,3.88
2022-12-16T23:17:17.345Z,4.80
2022-12-16T23:20:03.338Z,5.78
2022-12-16T23:22:49.912Z,4.32
2022-12-16T23:25:35.609Z,3.90
2022-12-16T23:28:20.747Z,3.97
2022-12-16T23:31:13.259Z,4.47
2022-12-16T23:33:58.849Z,3.85
2022-12-16T23:36:44.861Z,8.93
2022-12-16T23:39:31.279Z,6.75
2022-12-16T23:42:16.409Z,4.57
2022-12-16T23:45:01.602Z,3.63
2022-12-16T23:47:46.709Z,5.38
2022-12-16T23:50:31.731Z,3.92
2022-12-16T23:53:24.466Z,3.60
2022-12-16T23:56:09.784Z,3.65
2022-12-16T23:58:56.255Z,3.45
